Etusivu
METAR-TAF:

METAR-TAF

Lentoasemat :

Roskilde, Tanska

Leveyspiiri: 55-35N, Pituuspiiri: 012-08E, korkeus merenpinnasta: 44 m

Tämänhetkinen sää

Tämä raportti tehtiin 20 minuuttia sitten, kello 22.50 UTC
Tuuli 13 kn lounaasta
Lämpötila 6°C
Kosteus 87%
Ilmanpaine 1015 hPa
Näkyvyys 10 km tai enemmän

METAR: EKRK 172250Z AUTO 23013KT 9999NDV FEW038/// BKN180/// 06/04 Q1015

Aika: 00:10 (23:10 UTC)

Sääennuste

Tämä raportti tehtiin 3 tuntia ja 7 minuuttia sitten, kello 20.03 UTC
Ennuste voimassa 17. päivästä klo 21 UTC - 18. päivään klo 06 UTC
Tuuli 10 kn lounaasta
Näkyvyys 10 km tai enemmän
Hajanaisia pilviä 3000 ft:n korkeudessa
Ajoittain
18. päivästä klo 02 UTC - 18. päivään klo 06 UTC
Tuuli 15 kn lounaasta puuskistuen 25 kn:hen
Hajanaisia pilviä 2000 ft:n korkeudessa, Cumulonimbus.
vesikuuroja

TAF: EKRK 172003Z 1721/1806 22010KT 9999 SCT030 TEMPO 1802/1806 23015G25KT SHRA SCT020CB

Säähavainnot ja -ennusteet yli 4000 lentoasemalta (METAR- ja TAF-raportit).

Käytössä olevat sääasemat on merkitty karttaan keltaisilla ja punaisilla pisteillä.

Aseta hiiri pisteen päälle nähdäksesi sääaseman nimen.

Klikkaa sitten nähdäksesi säähavainnot ja -ennusteet.

Kartan vaihtaminen: klikkaa mustalla rastilla varustettuja vihreitä pisteitä, niin voit zoomata sisään; viivalla varustettua vihreää pistettä, niin voit zoomata ulos tai vihreitä nuolia, niin pääset viereisille kartoille.


METAR-TAF: